sensor_id;sensor_type;location;lat;lon;timestamp;pressure;altitude;pressure_sealevel;temperature;humidity
66385;BME280;53426;55.872;37.462;2022-12-19T00:02:25;100284.81;;;-8.51;71.19
66385;BME280;53426;55.872;37.462;2022-12-19T00:04:54;100289.97;;;-8.39;71.57
66385;BME280;53426;55.872;37.462;2022-12-19T00:07:21;100256.56;;;-8.39;70.68
66385;BME280;53426;55.872;37.462;2022-12-19T00:09:46;100242.03;;;-8.37;70.54
66385;BME280;53426;55.872;37.462;2022-12-19T00:12:12;100219.81;;;-8.30;70.07
66385;BME280;53426;55.872;37.462;2022-12-19T00:15:04;100252.41;;;-7.87;70.25
66385;BME280;53426;55.872;37.462;2022-12-19T00:17:31;100223.25;;;-7.90;70.52
66385;BME280;53426;55.872;37.462;2022-12-19T00:23:40;100211.25;;;-7.85;70.17
66385;BME280;53426;55.872;37.462;2022-12-19T00:29:47;100241.28;;;-7.51;69.30
66385;BME280;53426;55.872;37.462;2022-12-19T00:32:19;100273.00;;;-7.49;69.58
66385;BME280;53426;55.872;37.462;2022-12-19T00:34:45;100273.00;;;-7.59;70.16
66385;BME280;53426;55.872;37.462;2022-12-19T00:37:11;100216.41;;;-7.94;69.54
66385;BME280;53426;55.872;37.462;2022-12-19T00:39:37;100252.44;;;-7.61;70.70
66385;BME280;53426;55.872;37.462;2022-12-19T00:42:03;100248.13;;;-7.64;70.56
66385;BME280;53426;55.872;37.462;2022-12-19T00:44:29;100271.28;;;-7.50;70.58
66385;BME280;53426;55.872;37.462;2022-12-19T00:46:57;100261.00;;;-7.50;70.58
66385;BME280;53426;55.872;37.462;2022-12-19T00:49:23;100265.28;;;-7.44;71.41
66385;BME280;53426;55.872;37.462;2022-12-19T00:51:49;100254.13;;;-7.40;71.52
66385;BME280;53426;55.872;37.462;2022-12-19T00:54:14;100249.84;;;-7.41;70.82
66385;BME280;53426;55.872;37.462;2022-12-19T00:56:40;100258.44;;;-7.44;71.70
66385;BME280;53426;55.872;37.462;2022-12-19T00:59:06;100237.00;;;-7.44;71.91
66385;BME280;53426;55.872;37.462;2022-12-19T01:05:43;100247.25;;;-7.31;71.62
66385;BME280;53426;55.872;37.462;2022-12-19T01:08:12;100197.56;;;-7.55;71.49
66385;BME280;53426;55.872;37.462;2022-12-19T01:10:48;100246.41;;;-7.28;71.76
66385;BME280;53426;55.872;37.462;2022-12-19T01:13:16;100251.56;;;-7.30;72.05
66385;BME280;53426;55.872;37.462;2022-12-19T01:15:42;100249.00;;;-7.31;71.89
66385;BME280;53426;55.872;37.462;2022-12-19T01:18:08;100249.00;;;-7.37;71.29
66385;BME280;53426;55.872;37.462;2022-12-19T01:20:43;100245.56;;;-7.41;72.58
66385;BME280;53426;55.872;37.462;2022-12-19T01:23:12;100242.16;;;-7.37;72.28
66385;BME280;53426;55.872;37.462;2022-12-19T01:25:39;100248.13;;;-7.36;71.80
66385;BME280;53426;55.872;37.462;2022-12-19T01:28:06;100259.28;;;-7.36;72.13
66385;BME280;53426;55.872;37.462;2022-12-19T01:30:32;100260.13;;;-7.29;72.38
66385;BME280;53426;55.872;37.462;2022-12-19T01:33:01;100219.84;;;-7.56;71.71
66385;BME280;53426;55.872;37.462;2022-12-19T01:35:27;100255.00;;;-7.28;72.35
66385;BME280;53426;55.872;37.462;2022-12-19T01:37:53;100249.84;;;-7.31;72.40
66385;BME280;53426;55.872;37.462;2022-12-19T01:40:20;100259.28;;;-7.33;72.61
66385;BME280;53426;55.872;37.462;2022-12-19T01:45:31;100221.56;;;-7.49;72.34
66385;BME280;53426;55.872;37.462;2022-12-19T01:48:20;100237.84;;;-7.47;72.56
66385;BME280;53426;55.872;37.462;2022-12-19T01:51:09;100244.72;;;-7.44;72.71
66385;BME280;53426;55.872;37.462;2022-12-19T01:53:42;100236.16;;;-7.49;72.83
66385;BME280;53426;55.872;37.462;2022-12-19T01:56:09;100242.13;;;-7.34;72.95
66385;BME280;53426;55.872;37.462;2022-12-19T01:58:59;100230.94;;;-7.07;73.13
66385;BME280;53426;55.872;37.462;2022-12-19T02:01:27;100236.91;;;-6.97;72.76
66385;BME280;53426;55.872;37.462;2022-12-19T02:03:55;100230.06;;;-6.89;72.78
66385;BME280;53426;55.872;37.462;2022-12-19T02:06:24;100224.13;;;-7.15;73.28
66385;BME280;53426;55.872;37.462;2022-12-19T02:08:52;100218.09;;;-7.11;73.03
66385;BME280;53426;55.872;37.462;2022-12-19T02:11:18;100220.59;;;-6.87;73.27
66385;BME280;53426;55.872;37.462;2022-12-19T02:13:45;100204.25;;;-6.80;73.53
66385;BME280;53426;55.872;37.462;2022-12-19T02:16:53;100211.88;;;-6.51;73.46
66385;BME280;53426;55.872;37.462;2022-12-19T02:25:07;100216.16;;;-6.49;71.91
66385;BME280;53426;55.872;37.462;2022-12-19T02:28:30;100188.63;;;-6.38;72.14
66385;BME280;53426;55.872;37.462;2022-12-19T02:36:43;100191.97;;;-6.17;71.62
66385;BME280;53426;55.872;37.462;2022-12-19T02:39:41;100196.97;;;-5.99;71.78
66385;BME280;53426;55.872;37.462;2022-12-19T02:42:16;100177.28;;;-6.06;71.52
66385;BME280;53426;55.872;37.462;2022-12-19T02:44:53;100179.81;;;-6.00;70.91
66385;BME280;53426;55.872;37.462;2022-12-19T02:47:20;100176.34;;;-5.99;71.03
66385;BME280;53426;55.872;37.462;2022-12-19T02:49:47;100168.66;;;-6.02;70.45
66385;BME280;53426;55.872;37.462;2022-12-19T02:52:44;100174.69;;;-6.06;70.46
66385;BME280;53426;55.872;37.462;2022-12-19T02:55:14;100163.59;;;-6.20;70.67
66385;BME280;53426;55.872;37.462;2022-12-19T03:11:17;100130.66;;;-7.27;72.00
66385;BME280;53426;55.872;37.462;2022-12-19T03:14:18;100159.75;;;-7.11;73.03
66385;BME280;53426;55.872;37.462;2022-12-19T03:17:15;100158.03;;;-7.09;72.91
66385;BME280;53426;55.872;37.462;2022-12-19T03:22:57;100165.78;;;-7.12;72.71
66385;BME280;53426;55.872;37.462;2022-12-19T03:25:28;100164.88;;;-7.08;73.23
66385;BME280;53426;55.872;37.462;2022-12-19T03:28:00;100168.31;;;-7.01;73.05
66385;BME280;53426;55.872;37.462;2022-12-19T03:30:36;100167.41;;;-6.88;73.17
66385;BME280;53426;55.872;37.462;2022-12-19T03:33:04;100143.38;;;-6.90;72.52
66385;BME280;53426;55.872;37.462;2022-12-19T03:35:32;100166.50;;;-6.78;72.37
66385;BME280;53426;55.872;37.462;2022-12-19T03:38:02;100150.16;;;-6.68;72.66
66385;BME280;53426;55.872;37.462;2022-12-19T03:40:30;100157.00;;;-6.61;72.71
66385;BME280;53426;55.872;37.462;2022-12-19T03:43:07;100148.31;;;-6.48;72.40
66385;BME280;53426;55.872;37.462;2022-12-19T03:48:15;100135.53;;;-6.63;72.26
66385;BME280;53426;55.872;37.462;2022-12-19T03:54:06;100120.13;;;-6.66;72.68
66385;BME280;53426;55.872;37.462;2022-12-19T03:56:48;100108.03;;;-6.55;72.50
66385;BME280;53426;55.872;37.462;2022-12-19T03:59:20;100113.97;;;-6.45;72.77
66385;BME280;53426;55.872;37.462;2022-12-19T04:01:49;100115.75;;;-6.56;72.62
66385;BME280;53426;55.872;37.462;2022-12-19T04:04:17;100085.75;;;-6.62;72.43
66385;BME280;53426;55.872;37.462;2022-12-19T04:06:44;100123.47;;;-6.55;72.47
66385;BME280;53426;55.872;37.462;2022-12-19T04:09:13;100115.75;;;-6.58;72.23
66385;BME280;53426;55.872;37.462;2022-12-19T04:11:46;100095.19;;;-6.64;72.12
66385;BME280;53426;55.872;37.462;2022-12-19T04:14:20;100093.50;;;-6.68;72.66
66385;BME280;53426;55.872;37.462;2022-12-19T04:17:07;100104.66;;;-6.66;73.07
66385;BME280;53426;55.872;37.462;2022-12-19T04:19:51;100098.69;;;-6.71;72.93
66385;BME280;53426;55.872;37.462;2022-12-19T04:23:15;100122.69;;;-6.67;73.63
66385;BME280;53426;55.872;37.462;2022-12-19T04:25:44;100093.53;;;-6.71;73.17
66385;BME280;53426;55.872;37.462;2022-12-19T04:28:57;100089.28;;;-6.77;73.64
66385;BME280;53426;55.872;37.462;2022-12-19T04:31:04;100126.09;;;-6.61;73.93
66385;BME280;53426;55.872;37.462;2022-12-19T04:33:31;100126.94;;;-6.65;73.46
66385;BME280;53426;55.872;37.462;2022-12-19T04:35:57;100128.69;;;-6.68;73.90
66385;BME280;53426;55.872;37.462;2022-12-19T04:38:24;100125.19;;;-6.58;73.97
66385;BME280;53426;55.872;37.462;2022-12-19T04:40:51;100133.69;;;-6.40;73.97
66385;BME280;53426;55.872;37.462;2022-12-19T04:43:17;100136.16;;;-6.26;73.59
66385;BME280;53426;55.872;37.462;2022-12-19T04:45:43;100123.31;;;-6.30;73.31
66385;BME280;53426;55.872;37.462;2022-12-19T04:48:11;100135.25;;;-6.20;73.97
66385;BME280;53426;55.872;37.462;2022-12-19T04:50:37;100128.34;;;-6.12;73.38
66385;BME280;53426;55.872;37.462;2022-12-19T04:53:02;100130.88;;;-6.08;73.68
66385;BME280;53426;55.872;37.462;2022-12-19T04:55:28;100111.22;;;-6.19;73.07
66385;BME280;53426;55.872;37.462;2022-12-19T04:57:54;100115.50;;;-6.17;73.36
66385;BME280;53426;55.872;37.462;2022-12-19T05:00:20;100128.31;;;-6.09;73.51
66385;BME280;53426;55.872;37.462;2022-12-19T05:02:46;100125.72;;;-6.08;73.25
66385;BME280;53426;55.872;37.462;2022-12-19T05:05:13;100116.31;;;-6.16;73.40
66385;BME280;53426;55.872;37.462;2022-12-19T05:07:41;100105.09;;;-6.09;73.63
66385;BME280;53426;55.872;37.462;2022-12-19T05:10:07;100099.19;;;-6.17;73.24
66385;BME280;53426;55.872;37.462;2022-12-19T05:12:32;100119.78;;;-6.19;73.55
66385;BME280;53426;55.872;37.462;2022-12-19T05:20:51;100081.00;;;-6.05;73.22
66385;BME280;53426;55.872;37.462;2022-12-19T05:23:18;100100.63;;;-5.89;73.31
66385;BME280;53426;55.872;37.462;2022-12-19T05:25:45;100116.88;;;-5.79;72.83
66385;BME280;53426;55.872;37.462;2022-12-19T05:28:12;100116.84;;;-5.78;72.89
66385;BME280;53426;55.872;37.462;2022-12-19T05:30:43;100113.38;;;-5.77;73.12
66385;BME280;53426;55.872;37.462;2022-12-19T05:37:33;100126.31;;;-5.78;73.46
66385;BME280;53426;55.872;37.462;2022-12-19T05:40:45;100098.13;;;-5.95;72.88
66385;BME280;53426;55.872;37.462;2022-12-19T05:47:33;100080.09;;;-6.00;73.59
66385;BME280;53426;55.872;37.462;2022-12-19T05:53:16;100104.84;;;-5.79;72.95
66385;BME280;53426;55.872;37.462;2022-12-19T05:56:20;100117.47;;;-5.52;73.63
66385;BME280;53426;55.872;37.462;2022-12-19T05:58:47;100071.28;;;-5.77;73.36
66385;BME280;53426;55.872;37.462;2022-12-19T06:05:05;100091.66;;;-5.52;72.67
66385;BME280;53426;55.872;37.462;2022-12-19T06:07:31;100113.00;;;-5.37;73.32
66385;BME280;53426;55.872;37.462;2022-12-19T06:09:57;100101.94;;;-5.45;73.35
66385;BME280;53426;55.872;37.462;2022-12-19T06:12:22;100111.41;;;-5.49;72.87
66385;BME280;53426;55.872;37.462;2022-12-19T06:14:48;100122.47;;;-5.39;72.71
66385;BME280;53426;55.872;37.462;2022-12-19T06:21:02;100127.38;;;-5.15;72.61
66385;BME280;53426;55.872;37.462;2022-12-19T06:23:29;100129.09;;;-5.14;72.45
66385;BME280;53426;55.872;37.462;2022-12-19T06:26:00;100127.25;;;-5.03;72.49
66385;BME280;53426;55.872;37.462;2022-12-19T06:28:32;100111.91;;;-5.15;72.13
66385;BME280;53426;55.872;37.462;2022-12-19T06:31:03;100113.69;;;-5.22;71.68
66385;BME280;53426;55.872;37.462;2022-12-19T06:33:32;100093.22;;;-5.35;72.03
66385;BME280;53426;55.872;37.462;2022-12-19T06:36:02;100129.91;;;-5.08;72.05
66385;BME280;53426;55.872;37.462;2022-12-19T06:38:54;100123.75;;;-4.99;71.81
66385;BME280;53426;55.872;37.462;2022-12-19T06:41:24;100105.22;;;-5.31;71.79
66385;BME280;53426;55.872;37.462;2022-12-19T06:47:42;100096.41;;;-5.17;71.98
66385;BME280;53426;55.872;37.462;2022-12-19T06:50:08;100117.13;;;-5.18;72.03
66385;BME280;53426;55.872;37.462;2022-12-19T06:52:44;100128.19;;;-5.12;72.35
66385;BME280;53426;55.872;37.462;2022-12-19T06:55:10;100111.91;;;-5.14;72.34
66385;BME280;53426;55.872;37.462;2022-12-19T06:58:03;100103.09;;;-4.99;72.36
66385;BME280;53426;55.872;37.462;2022-12-19T07:00:35;100091.13;;;-5.03;72.17
66385;BME280;53426;55.872;37.462;2022-12-19T07:03:04;100085.09;;;-5.02;72.10
66385;BME280;53426;55.872;37.462;2022-12-19T07:05:31;100102.31;;;-5.06;72.34
66385;BME280;53426;55.872;37.462;2022-12-19T07:07:57;100093.69;;;-5.04;72.75
66385;BME280;53426;55.872;37.462;2022-12-19T07:10:23;100109.84;;;-4.89;72.76
66385;BME280;53426;55.872;37.462;2022-12-19T07:12:49;100106.41;;;-4.88;72.68
66385;BME280;53426;55.872;37.462;2022-12-19T07:15:15;100106.22;;;-4.74;72.66
66385;BME280;53426;55.872;37.462;2022-12-19T07:17:41;100113.00;;;-4.67;72.21
66385;BME280;53426;55.872;37.462;2022-12-19T07:20:11;100100.44;;;-4.91;72.40
66385;BME280;53426;55.872;37.462;2022-12-19T07:22:43;100088.47;;;-4.98;72.19
66385;BME280;53426;55.872;37.462;2022-12-19T07:25:09;100082.38;;;-4.93;72.47
66385;BME280;53426;55.872;37.462;2022-12-19T07:27:38;100126.91;;;-4.76;72.50
66385;BME280;53426;55.872;37.462;2022-12-19T07:30:11;100086.84;;;-5.07;72.66
66385;BME280;53426;55.872;37.462;2022-12-19T07:32:37;100128.59;;;-4.73;72.91
66385;BME280;53426;55.872;37.462;2022-12-19T07:35:07;100119.81;;;-4.58;72.71
66385;BME280;53426;55.872;37.462;2022-12-19T07:37:34;100119.66;;;-4.49;72.52
66385;BME280;53426;55.872;37.462;2022-12-19T07:40:00;100117.88;;;-4.44;72.08
66385;BME280;53426;55.872;37.462;2022-12-19T07:42:25;100123.91;;;-4.44;72.09
66385;BME280;53426;55.872;37.462;2022-12-19T07:44:51;100117.88;;;-4.44;72.29
66385;BME280;53426;55.872;37.462;2022-12-19T07:47:17;100117.00;;;-4.43;72.55
66385;BME280;53426;55.872;37.462;2022-12-19T07:49:43;100095.50;;;-4.47;72.43
66385;BME280;53426;55.872;37.462;2022-12-19T07:52:09;100107.53;;;-4.44;72.08
66385;BME280;53426;55.872;37.462;2022-12-19T07:54:35;100109.97;;;-4.34;72.36
66385;BME280;53426;55.872;37.462;2022-12-19T07:57:02;100112.63;;;-4.40;72.65
66385;BME280;53426;55.872;37.462;2022-12-19T07:59:28;100110.72;;;-4.27;72.39
66385;BME280;53426;55.872;37.462;2022-12-19T08:01:53;100112.16;;;-4.08;72.19
66385;BME280;53426;55.872;37.462;2022-12-19T08:04:19;100106.97;;;-4.08;72.28
66385;BME280;53426;55.872;37.462;2022-12-19T08:06:45;100105.16;;;-4.03;72.35
66385;BME280;53426;55.872;37.462;2022-12-19T08:09:11;100110.34;;;-4.03;72.19
66385;BME280;53426;55.872;37.462;2022-12-19T08:11:37;100115.66;;;-4.12;72.14
66385;BME280;53426;55.872;37.462;2022-12-19T08:14:05;100117.31;;;-4.06;72.60
66385;BME280;53426;55.872;37.462;2022-12-19T08:16:31;100104.34;;;-4.05;72.46
66385;BME280;53426;55.872;37.462;2022-12-19T08:18:56;100100.22;;;-4.16;72.66
66385;BME280;53426;55.872;37.462;2022-12-19T08:21:23;100104.28;;;-4.00;72.55
66385;BME280;53426;55.872;37.462;2022-12-19T08:23:49;100095.59;;;-3.98;72.36
66385;BME280;53426;55.872;37.462;2022-12-19T08:26:17;100110.03;;;-3.85;72.32
66385;BME280;53426;55.872;37.462;2022-12-19T08:28:55;100104.78;;;-3.80;72.33
66385;BME280;53426;55.872;37.462;2022-12-19T08:31:23;100110.72;;;-3.73;72.19
66385;BME280;53426;55.872;37.462;2022-12-19T08:33:50;100110.63;;;-3.67;72.19
66385;BME280;53426;55.872;37.462;2022-12-19T08:36:17;100096.75;;;-3.65;72.05
66385;BME280;53426;55.872;37.462;2022-12-19T08:38:50;100094.94;;;-3.60;72.06
66385;BME280;53426;55.872;37.462;2022-12-19T08:41:16;100100.94;;;-3.56;72.32
66385;BME280;53426;55.872;37.462;2022-12-19T08:43:47;100093.00;;;-3.49;72.49
66385;BME280;53426;55.872;37.462;2022-12-19T08:46:13;100095.66;;;-3.50;71.96
66385;BME280;53426;55.872;37.462;2022-12-19T08:48:39;100100.00;;;-3.54;72.45
66385;BME280;53426;55.872;37.462;2022-12-19T08:51:06;100095.66;;;-3.50;72.13
66385;BME280;53426;55.872;37.462;2022-12-19T08:53:35;100106.00;;;-3.50;71.81
66385;BME280;53426;55.872;37.462;2022-12-19T08:56:13;100093.81;;;-3.45;72.00
66385;BME280;53426;55.872;37.462;2022-12-19T08:58:43;100070.19;;;-3.74;72.24
66385;BME280;53426;55.872;37.462;2022-12-19T09:01:14;100089.34;;;-3.85;72.25
66385;BME280;53426;55.872;37.462;2022-12-19T09:03:43;100086.56;;;-3.74;72.50
66385;BME280;53426;55.872;37.462;2022-12-19T09:06:11;100092.44;;;-3.64;72.47
66385;BME280;53426;55.872;37.462;2022-12-19T09:08:38;100088.94;;;-3.60;72.75
66385;BME280;53426;55.872;37.462;2022-12-19T09:11:11;100081.09;;;-3.56;72.64
66385;BME280;53426;55.872;37.462;2022-12-19T09:13:39;100089.63;;;-3.51;72.49
66385;BME280;53426;55.872;37.462;2022-12-19T09:16:09;100087.22;;;-3.61;72.44
66385;BME280;53426;55.872;37.462;2022-12-19T09:18:38;100093.00;;;-3.49;72.77
66385;BME280;53426;55.872;37.462;2022-12-19T09:21:04;100079.28;;;-3.52;72.36
66385;BME280;53426;55.872;37.462;2022-12-19T09:23:32;100087.78;;;-3.46;72.49
66385;BME280;53426;55.872;37.462;2022-12-19T09:26:09;100094.50;;;-3.35;72.86
66385;BME280;53426;55.872;37.462;2022-12-19T09:28:36;100084.25;;;-3.42;72.48
66385;BME280;53426;55.872;37.462;2022-12-19T09:31:10;100087.72;;;-3.41;72.42
66385;BME280;53426;55.872;37.462;2022-12-19T09:33:38;100096.19;;;-3.33;72.57
66385;BME280;53426;55.872;37.462;2022-12-19T09:36:04;100095.34;;;-3.33;72.47
66385;BME280;53426;55.872;37.462;2022-12-19T09:38:32;100090.09;;;-3.32;72.71
66385;BME280;53426;55.872;37.462;2022-12-19T09:49:18;100104.63;;;-3.23;72.67
66385;BME280;53426;55.872;37.462;2022-12-19T09:55:23;100094.38;;;-3.29;72.66
66385;BME280;53426;55.872;37.462;2022-12-19T10:00:42;100089.22;;;-3.31;73.26
66385;BME280;53426;55.872;37.462;2022-12-19T10:03:35;100096.00;;;-3.24;72.99
66385;BME280;53426;55.872;37.462;2022-12-19T10:06:19;100077.81;;;-3.21;72.93
66385;BME280;53426;55.872;37.462;2022-12-19T10:08:46;100071.06;;;-3.28;73.00
66385;BME280;53426;55.872;37.462;2022-12-19T10:19:04;100095.66;;;-3.06;73.52
66385;BME280;53426;55.872;37.462;2022-12-19T10:29:06;100080.78;;;-2.96;73.13
66385;BME280;53426;55.872;37.462;2022-12-19T10:34:32;100068.19;;;-3.14;73.65
66385;BME280;53426;55.872;37.462;2022-12-19T10:37:20;100061.41;;;-3.20;73.71
66385;BME280;53426;55.872;37.462;2022-12-19T10:39:56;100082.94;;;-3.18;73.79
66385;BME280;53426;55.872;37.462;2022-12-19T10:46:00;100085.47;;;-3.16;74.57
66385;BME280;53426;55.872;37.462;2022-12-19T10:48:23;100104.19;;;-3.01;73.94
66385;BME280;53426;55.872;37.462;2022-12-19T10:50:50;100087.03;;;-3.06;74.35
66385;BME280;53426;55.872;37.462;2022-12-19T10:53:25;100082.75;;;-3.09;74.16
66385;BME280;53426;55.872;37.462;2022-12-19T10:55:52;100087.81;;;-3.03;74.43
66385;BME280;53426;55.872;37.462;2022-12-19T10:58:35;100097.19;;;-2.97;74.14
66385;BME280;53426;55.872;37.462;2022-12-19T11:01:08;100098.06;;;-2.97;73.93
66385;BME280;53426;55.872;37.462;2022-12-19T11:06:04;100103.16;;;-2.93;74.54
66385;BME280;53426;55.872;37.462;2022-12-19T11:08:33;100096.16;;;-2.88;74.54
66385;BME280;53426;55.872;37.462;2022-12-19T11:16:06;100112.53;;;-2.86;74.54
66385;BME280;53426;55.872;37.462;2022-12-19T11:31:43;100118.34;;;-2.75;74.93
66385;BME280;53426;55.872;37.462;2022-12-19T11:34:22;100123.44;;;-2.72;74.58
66385;BME280;53426;55.872;37.462;2022-12-19T11:36:57;100125.28;;;-2.77;74.73
66385;BME280;53426;55.872;37.462;2022-12-19T11:39:47;100121.75;;;-2.73;74.84
66385;BME280;53426;55.872;37.462;2022-12-19T11:44:48;100126.94;;;-2.73;75.39
66385;BME280;53426;55.872;37.462;2022-12-19T11:50:12;100115.84;;;-2.80;75.13
66385;BME280;53426;55.872;37.462;2022-12-19T11:55:35;100109.25;;;-2.55;74.96
66385;BME280;53426;55.872;37.462;2022-12-19T11:58:11;100124.88;;;-2.58;74.63
66385;BME280;53426;55.872;37.462;2022-12-19T12:00:46;100119.63;;;-2.56;74.41
66385;BME280;53426;55.872;37.462;2022-12-19T12:05:59;100129.84;;;-2.48;74.62
66385;BME280;53426;55.872;37.462;2022-12-19T12:10:59;100119.31;;;-2.41;74.22
66385;BME280;53426;55.872;37.462;2022-12-19T12:13:40;100120.25;;;-2.43;74.38
66385;BME280;53426;55.872;37.462;2022-12-19T12:16:12;100133.41;;;-2.53;74.55
66385;BME280;53426;55.872;37.462;2022-12-19T12:22:22;100141.09;;;-2.48;74.24
66385;BME280;53426;55.872;37.462;2022-12-19T12:30:56;100152.22;;;-2.43;74.59
66385;BME280;53426;55.872;37.462;2022-12-19T12:33:59;100117.00;;;-2.53;74.62
66385;BME280;53426;55.872;37.462;2022-12-19T12:44:37;100146.88;;;-2.37;74.12
66385;BME280;53426;55.872;37.462;2022-12-19T12:47:19;100170.09;;;-2.31;74.29
66385;BME280;53426;55.872;37.462;2022-12-19T12:50:00;100171.84;;;-2.33;74.52
66385;BME280;53426;55.872;37.462;2022-12-19T12:52:35;100169.28;;;-2.34;74.92
66385;BME280;53426;55.872;37.462;2022-12-19T12:55:29;100172.56;;;-2.25;74.34
66385;BME280;53426;55.872;37.462;2022-12-19T13:01:57;100172.69;;;-2.31;74.63
66385;BME280;53426;55.872;37.462;2022-12-19T13:09:33;100172.09;;;-2.43;75.26
66385;BME280;53426;55.872;37.462;2022-12-19T13:12:19;100154.94;;;-2.49;75.59
66385;BME280;53426;55.872;37.462;2022-12-19T13:30:29;100208.22;;;-1.96;74.98
66385;BME280;53426;55.872;37.462;2022-12-19T13:38:22;100201.13;;;-1.88;75.05
66385;BME280;53426;55.872;37.462;2022-12-19T13:41:02;100201.13;;;-1.88;75.12
66385;BME280;53426;55.872;37.462;2022-12-19T13:43:54;100206.41;;;-1.92;74.59
66385;BME280;53426;55.872;37.462;2022-12-19T13:49:02;100198.75;;;-1.97;74.53
66385;BME280;53426;55.872;37.462;2022-12-19T13:51:46;100209.63;;;-1.81;74.76
66385;BME280;53426;55.872;37.462;2022-12-19T13:54:21;100212.16;;;-1.80;74.93
66385;BME280;53426;55.872;37.462;2022-12-19T13:56:48;100212.50;;;-1.93;75.07
66385;BME280;53426;55.872;37.462;2022-12-19T13:59:14;100223.47;;;-1.81;75.11
66385;BME280;53426;55.872;37.462;2022-12-19T14:01:44;100219.88;;;-1.75;74.87
66385;BME280;53426;55.872;37.462;2022-12-19T14:06:46;100212.59;;;-1.61;75.13
66385;BME280;53426;55.872;37.462;2022-12-19T14:09:24;100213.50;;;-1.63;74.49
66385;BME280;53426;55.872;37.462;2022-12-19T14:11:57;100209.31;;;-1.69;74.80
66385;BME280;53426;55.872;37.462;2022-12-19T14:14:24;100200.84;;;-1.76;74.77
66385;BME280;53426;55.872;37.462;2022-12-19T14:17:20;100215.19;;;-1.61;75.02
66385;BME280;53426;55.872;37.462;2022-12-19T14:19:51;100210.84;;;-1.59;74.99
66385;BME280;53426;55.872;37.462;2022-12-19T14:22:21;100190.38;;;-1.73;74.88
66385;BME280;53426;55.872;37.462;2022-12-19T14:25:01;100174.19;;;-1.84;74.67
66385;BME280;53426;55.872;37.462;2022-12-19T14:30:04;100206.16;;;-1.80;75.37
66385;BME280;53426;55.872;37.462;2022-12-19T14:32:31;100205.03;;;-1.70;75.28
66385;BME280;53426;55.872;37.462;2022-12-19T14:35:03;100219.63;;;-1.64;74.88
66385;BME280;53426;55.872;37.462;2022-12-19T14:37:33;100213.56;;;-1.65;75.16
66385;BME280;53426;55.872;37.462;2022-12-19T14:40:13;100209.28;;;-1.67;75.63
66385;BME280;53426;55.872;37.462;2022-12-19T14:42:42;100218.69;;;-1.63;75.05
66385;BME280;53426;55.872;37.462;2022-12-19T14:45:39;100229.28;;;-1.71;75.35
66385;BME280;53426;55.872;37.462;2022-12-19T14:48:28;100228.25;;;-1.64;75.35
66385;BME280;53426;55.872;37.462;2022-12-19T14:53:35;100234.38;;;-1.66;75.51
66385;BME280;53426;55.872;37.462;2022-12-19T14:56:08;100235.09;;;-1.60;75.64
66385;BME280;53426;55.872;37.462;2022-12-19T14:58:37;100218.81;;;-1.68;75.77
66385;BME280;53426;55.872;37.462;2022-12-19T15:01:17;100226.47;;;-1.62;75.44
66385;BME280;53426;55.872;37.462;2022-12-19T15:04:13;100236.66;;;-1.53;75.90
66385;BME280;53426;55.872;37.462;2022-12-19T15:06:43;100241.06;;;-1.58;75.84
66385;BME280;53426;55.872;37.462;2022-12-19T15:09:12;100233.34;;;-1.59;75.57
66385;BME280;53426;55.872;37.462;2022-12-19T15:11:45;100214.50;;;-1.69;75.95
66385;BME280;53426;55.872;37.462;2022-12-19T15:14:45;100242.53;;;-1.46;75.28
66385;BME280;53426;55.872;37.462;2022-12-19T15:17:23;100227.09;;;-1.52;75.78
66385;BME280;53426;55.872;37.462;2022-12-19T15:19:50;100221.34;;;-1.65;75.61
66385;BME280;53426;55.872;37.462;2022-12-19T15:22:16;100230.75;;;-1.59;76.03
66385;BME280;53426;55.872;37.462;2022-12-19T15:24:43;100230.78;;;-1.61;75.74
66385;BME280;53426;55.872;37.462;2022-12-19T15:30:13;100241.19;;;-1.62;76.50
66385;BME280;53426;55.872;37.462;2022-12-19T15:32:39;100230.88;;;-1.64;76.10
66385;BME280;53426;55.872;37.462;2022-12-19T15:35:12;100217.06;;;-1.66;76.33
66385;BME280;53426;55.872;37.462;2022-12-19T15:40:55;100225.44;;;-1.55;76.38
66385;BME280;53426;55.872;37.462;2022-12-19T15:43:22;100236.47;;;-1.47;76.05
66385;BME280;53426;55.872;37.462;2022-12-19T15:45:53;100240.69;;;-1.41;76.07
66385;BME280;53426;55.872;37.462;2022-12-19T15:48:21;100231.22;;;-1.44;75.77
66385;BME280;53426;55.872;37.462;2022-12-19T15:50:47;100239.03;;;-1.44;76.21
66385;BME280;53426;55.872;37.462;2022-12-19T15:53:19;100245.88;;;-1.41;76.53
66385;BME280;53426;55.872;37.462;2022-12-19T15:55:47;100238.13;;;-1.43;76.13
66385;BME280;53426;55.872;37.462;2022-12-19T15:58:13;100209.13;;;-1.60;76.36
66385;BME280;53426;55.872;37.462;2022-12-19T16:00:42;100243.94;;;-1.33;76.11
66385;BME280;53426;55.872;37.462;2022-12-19T16:03:13;100232.84;;;-1.40;76.46
66385;BME280;53426;55.872;37.462;2022-12-19T16:05:39;100248.31;;;-1.35;76.03
66385;BME280;53426;55.872;37.462;2022-12-19T16:08:14;100240.53;;;-1.35;76.42
66385;BME280;53426;55.872;37.462;2022-12-19T16:13:35;100234.63;;;-1.42;76.45
66385;BME280;53426;55.872;37.462;2022-12-19T16:16:05;100249.84;;;-1.27;75.87
66385;BME280;53426;55.872;37.462;2022-12-19T16:18:31;100243.59;;;-1.19;75.92
66385;BME280;53426;55.872;37.462;2022-12-19T16:20:58;100249.66;;;-1.19;75.62
66385;BME280;53426;55.872;37.462;2022-12-19T16:23:24;100264.50;;;-1.24;75.93
66385;BME280;53426;55.872;37.462;2022-12-19T16:25:51;100240.16;;;-1.20;76.11
66385;BME280;53426;55.872;37.462;2022-12-19T16:37:04;100246.28;;;-1.22;76.37
66385;BME280;53426;55.872;37.462;2022-12-19T16:39:30;100261.56;;;-1.10;76.27
66385;BME280;53426;55.872;37.462;2022-12-19T16:41:56;100253.69;;;-1.07;76.11
66385;BME280;53426;55.872;37.462;2022-12-19T16:44:23;100249.31;;;-1.05;75.77
66385;BME280;53426;55.872;37.462;2022-12-19T16:46:52;100255.22;;;-0.99;76.06
66385;BME280;53426;55.872;37.462;2022-12-19T16:49:21;100247.44;;;-1.00;75.11